Time;durP1;ratioP1;P1;durP2;ratioP2;P2;SDS_P1;SDS_P2;PMS_P1;PMS_P2;Temp;Humidity;BMP_temperature;BMP_pressure;BME280_temperature;BME280_humidity;BME280_pressure;Samples;Min_cycle;Max_cycle;Signal;HPM_P1;HPM_P2
2021/07/15 00:02:00;;;;;;;595.80;569.17;;;15.30;99.90;;;;;;6246785;23;20435;-94
2021/07/15 00:04:46;;;;;;;607.40;579.90;;;15.40;99.90;;;;;;6257148;23;20418;-91
2021/07/15 00:07:20;;;;;;;604.33;577.10;;;15.20;99.90;;;;;;6246475;23;20487;-94
2021/07/15 00:10:29;;;;;;;547.57;524.57;;;15.10;99.90;;;;;;6257102;23;20403;-93
2021/07/15 00:12:58;;;;;;;589.73;563.53;;;15.10;99.90;;;;;;6245410;23;20406;-93
2021/07/15 00:15:33;;;;;;;602.30;575.20;;;15.10;99.90;;;;;;6246167;23;20454;-94
2021/07/15 00:18:05;;;;;;;540.17;517.57;;;15.00;99.90;;;;;;6256423;23;20403;-93
2021/07/15 00:20:37;;;;;;;602.33;575.17;;;15.00;99.90;;;;;;6246721;23;20461;-94
2021/07/15 00:23:09;;;;;;;599.97;572.83;;;15.00;99.90;;;;;;6256348;23;20499;-93
2021/07/15 00:25:39;;;;;;;545.67;522.77;;;15.10;99.90;;;;;;6246608;23;20910;-91
2021/07/15 00:28:30;;;;;;;547.73;524.77;;;15.00;99.90;;;;;;6254917;23;20457;-91
2021/07/15 00:31:21;;;;;;;588.33;562.20;;;15.00;99.90;;;;;;6246474;23;20399;-93
2021/07/15 00:34:09;;;;;;;;;;;;;;;;;;;;;
2021/07/15 00:36:40;;;;;;;545.40;522.50;;;15.10;99.90;;;;;;6256539;23;20409;-94
2021/07/15 00:39:18;;;;;;;591.03;564.60;;;15.00;99.90;;;;;;6256577;23;20412;-93
2021/07/15 00:41:58;;;;;;;542.77;519.97;;;14.90;99.90;;;;;;6245278;23;20490;-93
2021/07/15 00:44:52;;;;;;;546.40;523.47;;;15.00;99.90;;;;;;6256015;23;20407;-93
2021/07/15 00:47:25;;;;;;;541.23;518.73;;;15.00;99.90;;;;;;6245874;23;20942;-94
2021/07/15 00:49:59;;;;;;;602.50;575.20;;;15.00;99.90;;;;;;6246364;23;20400;-87
2021/07/15 00:52:30;;;;;;;612.47;584.33;;;15.00;99.90;;;;;;6256472;23;20474;-94
2021/07/15 00:55:15;;;;;;;550.50;527.23;;;14.90;99.90;;;;;;6245991;23;20467;-91
2021/07/15 00:57:50;;;;;;;550.57;527.33;;;15.00;99.90;;;;;;6245323;23;20416;-94
2021/07/15 01:00:49;;;;;;;550.53;527.33;;;15.10;99.90;;;;;;6256455;23;20712;-92
2021/07/15 01:03:41;;;;;;;;;;;;;;;;;;;;;
2021/07/15 01:06:24;;;;;;;618.30;589.57;;;15.30;99.90;;;;;;6255911;23;20416;-93
2021/07/15 01:09:03;;;;;;;554.27;530.47;;;15.10;99.90;;;;;;6255639;23;20907;-93
2021/07/15 01:11:57;;;;;;;;;;;;;;;;;;;;;
2021/07/15 01:14:52;;;;;;;;;;;;;;;;;;;;;
2021/07/15 01:17:25;;;;;;;558.40;534.37;;;15.30;99.90;;;;;;6242154;23;20407;-93
2021/07/15 01:20:32;;;;;;;598.87;571.50;;;15.30;99.90;;;;;;6255826;23;20436;-93
2021/07/15 01:23:42;;;;;;;619.50;590.80;;;15.30;99.90;;;;;;6255779;23;20439;-94
2021/07/15 01:26:46;;;;;;;623.70;594.57;;;15.30;99.90;;;;;;6245920;23;20513;-95
2021/07/15 01:29:33;;;;;;;628.27;598.70;;;15.30;99.90;;;;;;6256341;23;20415;-92
2021/07/15 01:32:27;;;;;;;630.57;600.67;;;15.30;99.90;;;;;;6256125;23;20469;-93
2021/07/15 01:34:57;;;;;;;562.47;537.80;;;15.30;99.90;;;;;;6245806;23;20399;-91
2021/07/15 01:40:27;;;;;;;583.57;556.93;;;15.30;99.90;;;;;;6245020;23;20417;-95
2021/07/15 01:43:12;;;;;;;627.97;597.97;;;15.40;99.90;;;;;;6255023;23;20411;-96
2021/07/15 01:46:03;;;;;;;;;;;;;;;;;;;;;
2021/07/15 01:48:56;;;;;;;567.63;542.13;;;15.30;99.90;;;;;;6242725;23;20415;-92
2021/07/15 01:51:25;;;;;;;569.60;544.07;;;15.20;99.90;;;;;;6255908;23;20502;-94
2021/07/15 01:54:30;;;;;;;596.53;568.93;;;15.20;99.90;;;;;;6258062;23;20490;-92
2021/07/15 01:57:23;;;;;;;642.03;611.10;;;15.30;99.90;;;;;;6234701;23;20902;-93
2021/07/15 02:07:25;;;;;;;;;;;;;;;;;;;;;
2021/07/15 02:10:40;;;;;;;554.20;530.50;;;15.00;99.90;;;;;;5955911;24;20537;-93
2021/07/15 02:13:25;;;;;;;548.70;525.47;;;14.90;99.90;;;;;;6078641;23;20497;-90
2021/07/15 02:15:58;;;;;;;555.50;531.57;;;14.90;99.90;;;;;;6164305;23;20414;-90
2021/07/15 02:28:34;;;;;;;564.70;540.10;;;15.10;99.90;;;;;;6063901;23;20802;-85
2021/07/15 02:31:21;;;;;;;648.90;617.57;;;15.20;99.90;;;;;;6066776;23;20401;-87
2021/07/15 02:33:58;;;;;;;649.13;617.70;;;15.20;99.90;;;;;;6200505;23;20416;-88
2021/07/15 02:36:37;;;;;;;646.93;615.53;;;15.20;99.90;;;;;;6226657;23;20733;-87
2021/07/15 02:39:09;;;;;;;560.33;535.73;;;15.30;99.90;;;;;;6227033;23;20412;-87
2021/07/15 02:41:38;;;;;;;559.10;534.67;;;15.40;99.90;;;;;;6226705;23;20400;-89
2021/07/15 02:44:16;;;;;;;606.57;578.40;;;15.30;99.90;;;;;;6215730;23;20400;-87
2021/07/15 02:46:55;;;;;;;561.10;536.50;;;15.40;99.90;;;;;;6226932;23;20439;-88
2021/07/15 02:49:24;;;;;;;557.53;533.03;;;15.40;99.90;;;;;;6226888;23;20446;-79
2021/07/15 02:51:52;;;;;;;617.30;588.00;;;15.40;99.90;;;;;;6216917;23;20455;-80
2021/07/15 02:54:20;;;;;;;560.17;535.27;;;15.50;99.90;;;;;;6216987;23;20400;-80
2021/07/15 02:56:53;;;;;;;571.43;546.00;;;15.60;99.90;;;;;;6215677;23;20408;-79
2021/07/15 02:59:29;;;;;;;566.37;541.30;;;15.60;99.90;;;;;;6216455;23;20428;-80
2021/07/15 03:02:06;;;;;;;572.40;546.80;;;15.60;99.90;;;;;;6216993;23;20618;-80
2021/07/15 03:04:41;;;;;;;574.47;548.77;;;15.60;99.90;;;;;;6216329;23;20438;-91
2021/07/15 03:07:17;;;;;;;567.97;542.67;;;15.60;99.90;;;;;;6216030;23;20539;-87
2021/07/15 03:09:55;;;;;;;564.43;539.23;;;15.60;99.90;;;;;;6226865;23;20892;-87
2021/07/15 03:12:44;;;;;;;569.53;543.93;;;15.60;99.90;;;;;;6225010;23;20447;-86
2021/07/15 03:18:47;;;;;;;639.67;608.83;;;15.50;99.90;;;;;;6220108;23;20741;-85
2021/07/15 03:21:17;;;;;;;570.90;545.27;;;15.40;99.90;;;;;;6075389;23;20908;-78
2021/07/15 03:24:04;;;;;;;;;;;;;;;;;;;;;
2021/07/15 03:30:14;;;;;;;633.47;603.63;;;15.40;99.90;;;;;;6214751;23;20407;-84
2021/07/15 03:33:21;;;;;;;;;;;;;;;;;;;;;
2021/07/15 03:35:51;;;;;;;669.77;637.63;;;15.10;99.90;;;;;;6156673;23;20415;-83
2021/07/15 03:38:18;;;;;;;570.90;546.37;;;15.10;99.90;;;;;;6246931;23;20412;-82
2021/07/15 03:40:45;;;;;;;562.90;538.53;;;15.00;99.90;;;;;;6257110;23;20404;-83
2021/07/15 03:43:14;;;;;;;557.87;534.17;;;15.00;99.90;;;;;;6245349;23;20404;-83
2021/07/15 03:45:43;;;;;;;626.73;597.73;;;15.00;99.90;;;;;;6257097;23;20403;-82
2021/07/15 03:48:27;;;;;;;551.40;528.17;;;15.10;99.90;;;;;;6246648;23;20538;-91
2021/07/15 03:51:13;;;;;;;551.13;527.97;;;15.10;99.90;;;;;;6256609;23;20446;-87
2021/07/15 03:53:43;;;;;;;634.67;605.23;;;15.30;99.90;;;;;;6256492;23;20490;-79
2021/07/15 03:56:18;;;;;;;639.17;609.10;;;15.20;99.90;;;;;;6246370;23;20495;-87
2021/07/15 03:58:48;;;;;;;639.27;609.37;;;15.20;99.90;;;;;;6255026;23;20445;-87
2021/07/15 04:01:17;;;;;;;641.90;612.00;;;15.10;99.90;;;;;;6246665;23;20400;-81
2021/07/15 04:03:48;;;;;;;648.57;618.17;;;15.10;99.90;;;;;;6256582;23;20407;-82
2021/07/15 04:06:17;;;;;;;638.03;608.53;;;15.20;99.90;;;;;;6246652;23;20427;-82
2021/07/15 04:08:46;;;;;;;572.77;547.97;;;15.30;99.90;;;;;;6256356;23;20450;-81
2021/07/15 04:11:15;;;;;;;640.07;610.27;;;15.40;99.90;;;;;;6246453;23;20431;-82
2021/07/15 04:13:43;;;;;;;636.10;606.40;;;15.40;99.90;;;;;;6245004;23;20439;-83
2021/07/15 04:16:23;;;;;;;636.63;607.13;;;15.60;99.90;;;;;;6246569;23;20450;-83
2021/07/15 04:18:55;;;;;;;578.83;553.70;;;15.60;99.90;;;;;;6256707;23;20427;-82
2021/07/15 04:21:25;;;;;;;644.80;614.50;;;15.70;99.90;;;;;;6246085;23;20403;-81
2021/07/15 04:23:55;;;;;;;578.07;552.63;;;15.80;99.90;;;;;;6246922;23;20443;-90
2021/07/15 04:26:24;;;;;;;631.93;602.13;;;15.80;99.90;;;;;;6260651;23;20408;-96
2021/07/15 04:29:04;;;;;;;580.90;555.07;;;15.80;99.90;;;;;;6124992;23;20502;-90
2021/07/15 04:32:05;;;;;;;584.20;558.03;;;15.90;99.90;;;;;;6123689;23;20419;-92
2021/07/15 04:34:41;;;;;;;646.57;615.87;;;15.90;99.90;;;;;;6123776;23;20415;-91
2021/07/15 04:40:55;;;;;;;;;;;;;;;;;;;;;
2021/07/15 04:43:30;;;;;;;641.23;610.43;;;15.90;99.90;;;;;;6117831;23;20451;-92
2021/07/15 04:50:47;;;;;;;;;;;;;;;;;;;;;
2021/07/15 04:56:47;;;;;;;;;;;;;;;;;;;;;
2021/07/15 04:59:16;;;;;;;618.10;589.00;;;16.30;99.90;;;;;;6179478;23;20419;-84
2021/07/15 05:01:43;;;;;;;682.13;648.13;;;16.50;99.90;;;;;;6246240;23;20400;-84
2021/07/15 05:04:13;;;;;;;700.27;665.03;;;16.40;99.90;;;;;;6256779;23;20406;-93
2021/07/15 05:06:40;;;;;;;717.77;681.23;;;16.40;99.90;;;;;;6256580;23;20462;-89
2021/07/15 05:09:08;;;;;;;696.00;661.00;;;16.40;99.90;;;;;;6257723;23;20454;-94
2021/07/15 05:15:04;;;;;;;;;;;;;;;;;;;;;
2021/07/15 05:18:14;;;;;;;721.27;684.27;;;16.50;99.90;;;;;;6226889;23;20415;-91
2021/07/15 05:21:03;;;;;;;643.63;612.50;;;16.50;99.90;;;;;;6255551;23;20442;-90
2021/07/15 05:24:22;;;;;;;722.83;685.23;;;16.50;99.90;;;;;;6255530;23;20435;-88
2021/07/15 05:27:07;;;;;;;729.10;690.70;;;16.90;99.90;;;;;;6102698;23;20504;-90
2021/07/15 05:32:54;;;;;;;758.03;715.73;;;17.30;99.90;;;;;;6150451;23;21057;-94
2021/07/15 05:35:21;;;;;;;706.80;667.67;;;17.60;99.90;;;;;;6260372;23;20498;-82
2021/07/15 05:37:47;;;;;;;716.77;676.37;;;17.60;99.90;;;;;;6245919;23;20475;-83
2021/07/15 05:40:15;;;;;;;794.20;748.07;;;17.60;99.90;;;;;;6245826;23;20399;-87
2021/07/15 05:43:10;;;;;;;733.60;691.27;;;17.50;99.90;;;;;;6254498;23;20411;-85
2021/07/15 05:48:30;;;;;;;764.90;719.73;;;17.40;99.90;;;;;;6244303;23;20443;-91
2021/07/15 05:52:00;;;;;;;772.80;726.87;;;17.50;99.90;;;;;;6255661;23;20728;-89
2021/07/15 05:54:54;;;;;;;;;;;;;;;;;;;;;
2021/07/15 05:57:33;;;;;;;805.90;757.90;;;18.00;99.90;;;;;;6131859;23;20435;-94
2021/07/15 06:00:29;;;;;;;815.97;766.97;;;18.00;99.90;;;;;;6247018;23;20713;-93
2021/07/15 06:03:33;;;;;;;;;;;;;;;;;;;;;
2021/07/15 06:06:19;;;;;;;837.37;786.17;;;18.40;99.90;;;;;;6256820;23;20407;-94
2021/07/15 06:08:50;;;;;;;833.20;782.70;;;18.70;99.90;;;;;;6258311;23;20431;-94
2021/07/15 06:11:17;;;;;;;930.73;874.13;;;18.70;99.90;;;;;;6256971;23;20407;-92
2021/07/15 06:13:56;;;;;;;900.00;845.60;;;18.70;99.90;;;;;;6255587;23;20937;-94
2021/07/15 06:16:27;;;;;;;915.17;860.17;;;18.80;99.90;;;;;;6256996;23;20410;-93
2021/07/15 06:18:55;;;;;;;931.57;875.97;;;18.90;99.90;;;;;;6256160;23;20487;-92
2021/07/15 06:28:18;;;;;;;;;;;;;;;;;;;;;
2021/07/15 06:40:14;;;;;;;1069.90;999.63;;;19.30;99.90;;;;;;5893143;23;20796;-84
2021/07/15 06:42:45;;;;;;;976.63;920.33;;;19.40;99.90;;;;;;6070270;23;20494;-85
2021/07/15 06:45:57;;;;;;;969.00;913.43;;;19.50;99.90;;;;;;6104717;23;20454;-86
2021/07/15 07:14:03;;;;;;;;;;;;;;;;;;;;;
2021/07/15 07:16:31;;;;;;;1173.17;999.90;;;19.90;99.90;;;;;;6036011;23;20416;-80
2021/07/15 07:19:04;;;;;;;1164.30;999.90;;;20.20;99.90;;;;;;6153873;23;20481;-87
2021/07/15 07:21:31;;;;;;;1160.90;999.90;;;20.30;99.90;;;;;;6188518;22;20411;-79
2021/07/15 07:26:47;;;;;;;1068.83;999.90;;;20.50;99.90;;;;;;6183375;22;20947;-83
2021/07/15 07:36:42;;;;;;;1161.17;999.90;;;20.30;99.90;;;;;;6084166;23;20423;-87
2021/07/15 07:58:45;;;;;;;981.40;932.37;;;21.30;89.30;;;;;;5964580;23;20458;-87
2021/07/15 08:01:14;;;;;;;968.33;920.20;;;21.80;92.40;;;;;;6049004;23;20417;-84
2021/07/15 08:03:53;;;;;;;508.47;490.33;;;22.20;92.20;;;;;;6193235;23;20928;-88
2021/07/15 08:06:36;;;;;;;547.43;526.73;;;22.30;76.40;;;;;;6202317;22;20420;-87
2021/07/15 08:09:31;;;;;;;;;;;;;;;;;;;;;
2021/07/15 08:12:07;;;;;;;497.10;479.00;;;23.30;69.20;;;;;;6286012;22;20422;-87
2021/07/15 08:14:58;;;;;;;468.50;451.63;;;23.80;57.80;;;;;;6287568;22;20402;-87
2021/07/15 08:21:26;;;;;;;;;;;;;;;;;;;;;
2021/07/15 08:24:18;;;;;;;;;;;;;;;;;;;;;
2021/07/15 08:27:36;;;;;;;;;;;;;;;;;;;;;
2021/07/15 08:30:47;;;;;;;;;;;;;;;;;;;;;
2021/07/15 08:33:36;;;;;;;314.50;302.77;;;24.80;39.80;;;;;;6274546;22;20414;-88
2021/07/15 08:36:47;;;;;;;269.77;259.37;;;24.90;41.90;;;;;;6287230;22;20406;-84
2021/07/15 08:46:47;;;;;;;;;;;;;;;;;;;;;
2021/07/15 08:59:33;;;;;;;70.37;65.57;;;24.90;39.90;;;;;;5905134;24;20501;-89
2021/07/15 09:04:42;;;;;;;54.70;50.20;;;26.00;36.40;;;;;;6304648;22;20448;-89
2021/07/15 09:07:22;;;;;;;33.33;23.53;;;26.80;32.00;;;;;;6318272;22;20471;-90
2021/07/15 09:13:59;;;;;;;33.00;15.83;;;27.40;26.30;;;;;;6179628;23;20499;-91
2021/07/15 09:16:57;;;;;;;32.17;12.80;;;27.50;24.70;;;;;;6181845;23;20421;-90
2021/07/15 09:20:05;;;;;;;;;;;;;;;;;;;;;
2021/07/15 09:41:00;;;;;;;27.57;2.03;;;26.60;22.20;;;;;;5882698;24;20458;-92
2021/07/15 09:56:08;;;;;;;24.80;3.37;;;24.50;31.10;;;;;;6274308;22;20544;-92
2021/07/15 09:59:39;;;;;;;;;;;;;;;;;;;;;
2021/07/15 10:09:13;;;;;;;;;;;;;;;;;;;;;
2021/07/15 10:12:13;;;;;;;22.50;3.20;;;24.70;31.40;;;;;;6165420;23;20401;-91
2021/07/15 10:14:49;;;;;;;22.80;3.60;;;25.00;30.20;;;;;;6236667;22;20410;-87
2021/07/15 10:17:35;;;;;;;22.80;3.60;;;25.90;29.90;;;;;;6288023;22;20424;-87
2021/07/15 10:23:55;;;;;;;;;;;;;;;;;;;;;
2021/07/15 13:17:38;;;;;;;24.10;2.40;;;25.60;33.80;;;;;;5955168;24;20763;-80
2021/07/15 13:20:13;;;;;;;28.83;3.13;;;26.50;33.70;;;;;;6064965;23;20847;-84
2021/07/15 13:22:47;;;;;;;29.60;4.10;;;27.30;26.70;;;;;;6153926;23;20859;-84
2021/07/15 17:23:48;;;;;;;77.63;73.33;;;19.90;97.40;;;;;;6271354;22;20456;-81
2021/07/15 17:26:19;;;;;;;81.20;76.80;;;19.90;98.80;;;;;;6276109;22;20477;-80
2021/07/15 18:01:28;;;;;;;85.93;81.43;;;19.50;99.70;;;;;;6261456;22;20456;-82
2021/07/15 19:25:41;;;;;;;401.97;389.17;;;18.30;99.90;;;;;;6268239;22;20519;-75
2021/07/15 20:45:21;;;;;;;239.07;230.60;;;18.30;99.90;;;;;;6255966;22;20453;-78
